sensor_id;sensor_type;location;lat;lon;timestamp;P1;durP1;ratioP1;P2;durP2;ratioP2
21546;SDS011;41275;51.912;4.388;2023-02-15T00:04:26;69.40;;;35.25;;
21546;SDS011;41275;51.912;4.388;2023-02-15T00:10:06;72.10;;;35.83;;
21546;SDS011;41275;51.912;4.388;2023-02-15T00:15:28;66.70;;;34.80;;
21546;SDS011;41275;51.912;4.388;2023-02-15T00:20:49;62.83;;;34.23;;
21546;SDS011;41275;51.912;4.388;2023-02-15T00:26:11;63.97;;;32.43;;
21546;SDS011;41275;51.912;4.388;2023-02-15T00:31:33;63.70;;;33.45;;
21546;SDS011;41275;51.912;4.388;2023-02-15T00:36:55;63.90;;;34.50;;
21546;SDS011;41275;51.912;4.388;2023-02-15T00:42:16;65.95;;;33.75;;
21546;SDS011;41275;51.912;4.388;2023-02-15T00:47:37;64.10;;;33.15;;
21546;SDS011;41275;51.912;4.388;2023-02-15T00:52:59;63.85;;;32.00;;
21546;SDS011;41275;51.912;4.388;2023-02-15T00:58:20;62.70;;;32.83;;
21546;SDS011;41275;51.912;4.388;2023-02-15T01:03:41;61.58;;;32.88;;
21546;SDS011;41275;51.912;4.388;2023-02-15T01:09:03;57.25;;;30.98;;
21546;SDS011;41275;51.912;4.388;2023-02-15T01:14:24;61.90;;;30.65;;
21546;SDS011;41275;51.912;4.388;2023-02-15T01:19:45;65.93;;;32.45;;
21546;SDS011;41275;51.912;4.388;2023-02-15T01:25:07;58.72;;;30.73;;
21546;SDS011;41275;51.912;4.388;2023-02-15T01:30:28;59.13;;;30.98;;
21546;SDS011;41275;51.912;4.388;2023-02-15T01:35:55;60.72;;;30.95;;
21546;SDS011;41275;51.912;4.388;2023-02-15T01:41:19;59.80;;;31.67;;
21546;SDS011;41275;51.912;4.388;2023-02-15T01:46:42;58.30;;;30.33;;
21546;SDS011;41275;51.912;4.388;2023-02-15T01:52:13;57.33;;;30.13;;
21546;SDS011;41275;51.912;4.388;2023-02-15T01:57:36;58.60;;;30.33;;
21546;SDS011;41275;51.912;4.388;2023-02-15T02:02:57;61.73;;;31.60;;
21546;SDS011;41275;51.912;4.388;2023-02-15T02:08:19;62.33;;;30.65;;
21546;SDS011;41275;51.912;4.388;2023-02-15T02:13:40;62.28;;;31.15;;
21546;SDS011;41275;51.912;4.388;2023-02-15T02:19:17;60.42;;;31.48;;
21546;SDS011;41275;51.912;4.388;2023-02-15T02:25:11;65.87;;;31.53;;
21546;SDS011;41275;51.912;4.388;2023-02-15T02:36:53;59.20;;;30.00;;
21546;SDS011;41275;51.912;4.388;2023-02-15T02:42:25;56.63;;;30.05;;
21546;SDS011;41275;51.912;4.388;2023-02-15T02:48:05;57.88;;;30.27;;
21546;SDS011;41275;51.912;4.388;2023-02-15T02:53:32;57.05;;;30.40;;
21546;SDS011;41275;51.912;4.388;2023-02-15T02:59:05;60.97;;;31.80;;
21546;SDS011;41275;51.912;4.388;2023-02-15T03:04:41;61.67;;;32.20;;
21546;SDS011;41275;51.912;4.388;2023-02-15T03:10:06;61.80;;;31.53;;
21546;SDS011;41275;51.912;4.388;2023-02-15T03:15:29;61.20;;;31.95;;
21546;SDS011;41275;51.912;4.388;2023-02-15T03:21:14;63.20;;;31.83;;
21546;SDS011;41275;51.912;4.388;2023-02-15T03:26:43;63.25;;;31.30;;
21546;SDS011;41275;51.912;4.388;2023-02-15T03:32:08;61.87;;;30.90;;
21546;SDS011;41275;51.912;4.388;2023-02-15T03:37:47;61.85;;;30.83;;
21546;SDS011;41275;51.912;4.388;2023-02-15T03:43:14;61.47;;;30.70;;
21546;SDS011;41275;51.912;4.388;2023-02-15T03:48:44;62.53;;;30.37;;
21546;SDS011;41275;51.912;4.388;2023-02-15T03:54:11;65.10;;;31.73;;
21546;SDS011;41275;51.912;4.388;2023-02-15T03:59:56;63.53;;;31.63;;
21546;SDS011;41275;51.912;4.388;2023-02-15T04:05:37;68.97;;;32.30;;
21546;SDS011;41275;51.912;4.388;2023-02-15T04:10:58;59.95;;;30.75;;
21546;SDS011;41275;51.912;4.388;2023-02-15T04:16:19;62.47;;;31.55;;
21546;SDS011;41275;51.912;4.388;2023-02-15T04:21:41;61.17;;;31.00;;
21546;SDS011;41275;51.912;4.388;2023-02-15T04:27:20;64.85;;;31.90;;
21546;SDS011;41275;51.912;4.388;2023-02-15T04:32:42;62.63;;;31.00;;
21546;SDS011;41275;51.912;4.388;2023-02-15T04:38:03;66.22;;;32.10;;
21546;SDS011;41275;51.912;4.388;2023-02-15T04:43:24;57.13;;;30.23;;
21546;SDS011;41275;51.912;4.388;2023-02-15T04:48:45;61.80;;;30.83;;
21546;SDS011;41275;51.912;4.388;2023-02-15T04:54:06;62.10;;;29.60;;
21546;SDS011;41275;51.912;4.388;2023-02-15T04:59:27;58.90;;;29.37;;
21546;SDS011;41275;51.912;4.388;2023-02-15T05:04:49;58.72;;;28.23;;
21546;SDS011;41275;51.912;4.388;2023-02-15T05:10:10;61.30;;;29.45;;
21546;SDS011;41275;51.912;4.388;2023-02-15T05:15:31;57.10;;;28.67;;
21546;SDS011;41275;51.912;4.388;2023-02-15T05:20:52;65.68;;;30.90;;
21546;SDS011;41275;51.912;4.388;2023-02-15T05:26:16;60.97;;;29.17;;
21546;SDS011;41275;51.912;4.388;2023-02-15T05:31:57;60.10;;;28.85;;
21546;SDS011;41275;51.912;4.388;2023-02-15T05:37:19;58.67;;;28.67;;
21546;SDS011;41275;51.912;4.388;2023-02-15T05:42:40;60.03;;;28.73;;
21546;SDS011;41275;51.912;4.388;2023-02-15T05:48:08;60.10;;;28.20;;
21546;SDS011;41275;51.912;4.388;2023-02-15T05:53:50;57.15;;;27.33;;
21546;SDS011;41275;51.912;4.388;2023-02-15T05:59:11;56.37;;;28.50;;
21546;SDS011;41275;51.912;4.388;2023-02-15T06:04:33;58.60;;;27.98;;
21546;SDS011;41275;51.912;4.388;2023-02-15T06:09:54;60.17;;;28.27;;
21546;SDS011;41275;51.912;4.388;2023-02-15T06:15:15;54.97;;;27.33;;
21546;SDS011;41275;51.912;4.388;2023-02-15T06:20:37;58.78;;;27.17;;
21546;SDS011;41275;51.912;4.388;2023-02-15T06:25:58;49.58;;;25.70;;
21546;SDS011;41275;51.912;4.388;2023-02-15T06:31:19;56.95;;;26.60;;
21546;SDS011;41275;51.912;4.388;2023-02-15T06:36:40;57.97;;;27.85;;
21546;SDS011;41275;51.912;4.388;2023-02-15T06:42:01;54.50;;;27.70;;
21546;SDS011;41275;51.912;4.388;2023-02-15T06:47:23;53.97;;;26.57;;
21546;SDS011;41275;51.912;4.388;2023-02-15T06:52:44;60.10;;;27.40;;
21546;SDS011;41275;51.912;4.388;2023-02-15T06:58:05;54.40;;;27.02;;
21546;SDS011;41275;51.912;4.388;2023-02-15T07:03:26;54.97;;;26.35;;
21546;SDS011;41275;51.912;4.388;2023-02-15T07:08:47;58.15;;;28.15;;
21546;SDS011;41275;51.912;4.388;2023-02-15T07:14:09;55.38;;;28.15;;
21546;SDS011;41275;51.912;4.388;2023-02-15T07:19:30;53.30;;;27.40;;
21546;SDS011;41275;51.912;4.388;2023-02-15T07:24:51;55.03;;;27.40;;
21546;SDS011;41275;51.912;4.388;2023-02-15T07:30:16;59.22;;;27.38;;
21546;SDS011;41275;51.912;4.388;2023-02-15T07:35:37;58.47;;;28.60;;
21546;SDS011;41275;51.912;4.388;2023-02-15T07:41:03;61.30;;;27.10;;
21546;SDS011;41275;51.912;4.388;2023-02-15T07:46:26;55.03;;;27.58;;
21546;SDS011;41275;51.912;4.388;2023-02-15T07:51:47;51.75;;;27.38;;
21546;SDS011;41275;51.912;4.388;2023-02-15T07:57:08;51.38;;;26.60;;
21546;SDS011;41275;51.912;4.388;2023-02-15T08:02:29;54.57;;;27.60;;
21546;SDS011;41275;51.912;4.388;2023-02-15T08:07:51;56.57;;;27.80;;
21546;SDS011;41275;51.912;4.388;2023-02-15T08:13:12;55.93;;;27.07;;
21546;SDS011;41275;51.912;4.388;2023-02-15T08:18:33;54.67;;;27.23;;
21546;SDS011;41275;51.912;4.388;2023-02-15T08:23:55;60.03;;;29.25;;
21546;SDS011;41275;51.912;4.388;2023-02-15T08:29:18;57.33;;;27.33;;
21546;SDS011;41275;51.912;4.388;2023-02-15T08:34:41;55.50;;;27.38;;
21546;SDS011;41275;51.912;4.388;2023-02-15T08:40:02;58.03;;;30.43;;
21546;SDS011;41275;51.912;4.388;2023-02-15T08:45:24;55.97;;;28.65;;
21546;SDS011;41275;51.912;4.388;2023-02-15T08:50:46;52.33;;;27.23;;
21546;SDS011;41275;51.912;4.388;2023-02-15T08:56:07;56.13;;;27.52;;
21546;SDS011;41275;51.912;4.388;2023-02-15T09:01:30;52.95;;;25.38;;
21546;SDS011;41275;51.912;4.388;2023-02-15T09:06:53;47.25;;;25.45;;
21546;SDS011;41275;51.912;4.388;2023-02-15T09:12:14;46.70;;;24.48;;
21546;SDS011;41275;51.912;4.388;2023-02-15T09:17:35;55.28;;;26.58;;
21546;SDS011;41275;51.912;4.388;2023-02-15T09:22:56;50.63;;;25.15;;
21546;SDS011;41275;51.912;4.388;2023-02-15T09:28:17;51.25;;;25.42;;
21546;SDS011;41275;51.912;4.388;2023-02-15T09:33:39;48.40;;;25.42;;
21546;SDS011;41275;51.912;4.388;2023-02-15T09:39:17;49.80;;;26.23;;
21546;SDS011;41275;51.912;4.388;2023-02-15T09:50:44;49.40;;;25.87;;
21546;SDS011;41275;51.912;4.388;2023-02-15T10:13:36;50.28;;;26.70;;
21546;SDS011;41275;51.912;4.388;2023-02-15T10:26:14;50.27;;;25.33;;
21546;SDS011;41275;51.912;4.388;2023-02-15T10:31:47;49.28;;;25.23;;
21546;SDS011;41275;51.912;4.388;2023-02-15T10:59:39;50.03;;;26.53;;
21546;SDS011;41275;51.912;4.388;2023-02-15T11:16:24;48.58;;;25.77;;
21546;SDS011;41275;51.912;4.388;2023-02-15T11:21:50;52.47;;;25.40;;
21546;SDS011;41275;51.912;4.388;2023-02-15T11:27:22;46.47;;;24.33;;
21546;SDS011;41275;51.912;4.388;2023-02-15T11:32:47;46.10;;;24.53;;
21546;SDS011;41275;51.912;4.388;2023-02-15T11:38:13;46.13;;;23.87;;
21546;SDS011;41275;51.912;4.388;2023-02-15T11:49:36;63.90;;;26.02;;
21546;SDS011;41275;51.912;4.388;2023-02-15T11:54:58;43.47;;;23.15;;
21546;SDS011;41275;51.912;4.388;2023-02-15T12:05:49;41.17;;;23.67;;
21546;SDS011;41275;51.912;4.388;2023-02-15T12:11:19;47.80;;;23.52;;
21546;SDS011;41275;51.912;4.388;2023-02-15T12:16:48;47.85;;;25.50;;
21546;SDS011;41275;51.912;4.388;2023-02-15T12:22:21;43.78;;;23.40;;
21546;SDS011;41275;51.912;4.388;2023-02-15T12:27:51;44.03;;;23.60;;
21546;SDS011;41275;51.912;4.388;2023-02-15T12:33:17;44.30;;;22.87;;
21546;SDS011;41275;51.912;4.388;2023-02-15T12:38:42;44.07;;;23.60;;
21546;SDS011;41275;51.912;4.388;2023-02-15T12:44:05;45.10;;;22.73;;
21546;SDS011;41275;51.912;4.388;2023-02-15T12:49:39;47.05;;;24.10;;
21546;SDS011;41275;51.912;4.388;2023-02-15T12:55:11;48.05;;;24.02;;
21546;SDS011;41275;51.912;4.388;2023-02-15T13:00:42;51.42;;;25.80;;
21546;SDS011;41275;51.912;4.388;2023-02-15T13:06:04;45.93;;;24.20;;
21546;SDS011;41275;51.912;4.388;2023-02-15T13:11:29;42.28;;;22.92;;
21546;SDS011;41275;51.912;4.388;2023-02-15T13:16:58;48.67;;;25.10;;
21546;SDS011;41275;51.912;4.388;2023-02-15T13:22:34;46.08;;;24.15;;
21546;SDS011;41275;51.912;4.388;2023-02-15T13:28:03;48.00;;;23.85;;
21546;SDS011;41275;51.912;4.388;2023-02-15T13:33:33;43.37;;;24.20;;
21546;SDS011;41275;51.912;4.388;2023-02-15T13:44:52;46.60;;;24.20;;
21546;SDS011;41275;51.912;4.388;2023-02-15T13:56:13;45.97;;;22.20;;
21546;SDS011;41275;51.912;4.388;2023-02-15T14:01:58;43.25;;;22.10;;
21546;SDS011;41275;51.912;4.388;2023-02-15T14:13:29;45.20;;;21.07;;
21546;SDS011;41275;51.912;4.388;2023-02-15T14:25:12;37.77;;;21.40;;
21546;SDS011;41275;51.912;4.388;2023-02-15T14:30:45;42.25;;;22.90;;
21546;SDS011;41275;51.912;4.388;2023-02-15T14:36:11;39.25;;;22.35;;
21546;SDS011;41275;51.912;4.388;2023-02-15T14:41:38;50.25;;;22.95;;
21546;SDS011;41275;51.912;4.388;2023-02-15T14:47:24;44.25;;;23.13;;
21546;SDS011;41275;51.912;4.388;2023-02-15T14:53:16;42.72;;;22.88;;
21546;SDS011;41275;51.912;4.388;2023-02-15T15:04:12;46.63;;;23.80;;
21546;SDS011;41275;51.912;4.388;2023-02-15T15:09:45;50.47;;;24.87;;
21546;SDS011;41275;51.912;4.388;2023-02-15T15:20:49;47.03;;;24.55;;
21546;SDS011;41275;51.912;4.388;2023-02-15T15:31:45;46.97;;;25.00;;
21546;SDS011;41275;51.912;4.388;2023-02-15T15:37:26;44.80;;;24.65;;
21546;SDS011;41275;51.912;4.388;2023-02-15T15:49:08;44.17;;;23.23;;
21546;SDS011;41275;51.912;4.388;2023-02-15T15:54:32;48.27;;;24.27;;
21546;SDS011;41275;51.912;4.388;2023-02-15T15:59:53;43.17;;;22.60;;
21546;SDS011;41275;51.912;4.388;2023-02-15T16:05:15;53.35;;;24.33;;
21546;SDS011;41275;51.912;4.388;2023-02-15T16:10:36;47.47;;;24.27;;
21546;SDS011;41275;51.912;4.388;2023-02-15T16:15:58;48.17;;;24.25;;
21546;SDS011;41275;51.912;4.388;2023-02-15T16:21:21;47.08;;;24.83;;
21546;SDS011;41275;51.912;4.388;2023-02-15T16:32:25;50.27;;;25.57;;
21546;SDS011;41275;51.912;4.388;2023-02-15T16:37:47;47.87;;;24.57;;
21546;SDS011;41275;51.912;4.388;2023-02-15T16:43:19;46.17;;;24.02;;
21546;SDS011;41275;51.912;4.388;2023-02-15T16:48:45;47.25;;;24.02;;
21546;SDS011;41275;51.912;4.388;2023-02-15T16:54:16;46.07;;;23.80;;
21546;SDS011;41275;51.912;4.388;2023-02-15T16:59:41;42.93;;;23.57;;
21546;SDS011;41275;51.912;4.388;2023-02-15T17:10:32;55.75;;;28.60;;
21546;SDS011;41275;51.912;4.388;2023-02-15T17:21:23;42.40;;;23.55;;
21546;SDS011;41275;51.912;4.388;2023-02-15T17:26:49;46.90;;;24.38;;
21546;SDS011;41275;51.912;4.388;2023-02-15T17:32:32;41.67;;;21.47;;
21546;SDS011;41275;51.912;4.388;2023-02-15T17:38:02;42.65;;;22.02;;
21546;SDS011;41275;51.912;4.388;2023-02-15T17:43:35;37.28;;;20.38;;
21546;SDS011;41275;51.912;4.388;2023-02-15T17:48:57;43.70;;;21.27;;
21546;SDS011;41275;51.912;4.388;2023-02-15T17:54:19;40.83;;;21.15;;
21546;SDS011;41275;51.912;4.388;2023-02-15T17:59:58;37.17;;;20.55;;
21546;SDS011;41275;51.912;4.388;2023-02-15T18:05:38;41.27;;;20.30;;
21546;SDS011;41275;51.912;4.388;2023-02-15T18:11:18;45.67;;;21.30;;
21546;SDS011;41275;51.912;4.388;2023-02-15T18:17:00;37.70;;;21.08;;
21546;SDS011;41275;51.912;4.388;2023-02-15T18:22:25;40.22;;;21.27;;
21546;SDS011;41275;51.912;4.388;2023-02-15T18:27:48;45.45;;;21.85;;
21546;SDS011;41275;51.912;4.388;2023-02-15T18:33:57;43.50;;;22.20;;
21546;SDS011;41275;51.912;4.388;2023-02-15T18:38:55;43.85;;;20.95;;
21546;SDS011;41275;51.912;4.388;2023-02-15T18:44:17;42.00;;;21.13;;
21546;SDS011;41275;51.912;4.388;2023-02-15T18:49:38;42.35;;;20.98;;
21546;SDS011;41275;51.912;4.388;2023-02-15T18:55:01;41.53;;;20.75;;
21546;SDS011;41275;51.912;4.388;2023-02-15T19:00:28;44.85;;;22.98;;
21546;SDS011;41275;51.912;4.388;2023-02-15T19:05:53;37.85;;;20.42;;
21546;SDS011;41275;51.912;4.388;2023-02-15T19:11:16;40.17;;;21.60;;
21546;SDS011;41275;51.912;4.388;2023-02-15T19:16:40;46.63;;;22.27;;
21546;SDS011;41275;51.912;4.388;2023-02-15T19:22:01;40.63;;;21.60;;
21546;SDS011;41275;51.912;4.388;2023-02-15T19:27:26;40.40;;;20.63;;
21546;SDS011;41275;51.912;4.388;2023-02-15T19:32:55;43.72;;;21.65;;
21546;SDS011;41275;51.912;4.388;2023-02-15T19:38:18;43.73;;;21.07;;
21546;SDS011;41275;51.912;4.388;2023-02-15T19:43:42;40.80;;;21.63;;
21546;SDS011;41275;51.912;4.388;2023-02-15T19:49:03;38.63;;;20.60;;
21546;SDS011;41275;51.912;4.388;2023-02-15T19:54:29;41.47;;;21.08;;
21546;SDS011;41275;51.912;4.388;2023-02-15T19:59:53;42.40;;;19.98;;
21546;SDS011;41275;51.912;4.388;2023-02-15T20:05:14;40.22;;;20.48;;
21546;SDS011;41275;51.912;4.388;2023-02-15T20:10:36;37.85;;;19.70;;
21546;SDS011;41275;51.912;4.388;2023-02-15T20:15:58;40.50;;;20.47;;
21546;SDS011;41275;51.912;4.388;2023-02-15T20:21:24;39.83;;;20.75;;
21546;SDS011;41275;51.912;4.388;2023-02-15T20:26:45;40.63;;;20.95;;
21546;SDS011;41275;51.912;4.388;2023-02-15T20:32:08;41.80;;;21.43;;
21546;SDS011;41275;51.912;4.388;2023-02-15T20:37:30;41.27;;;20.50;;
21546;SDS011;41275;51.912;4.388;2023-02-15T20:42:51;43.30;;;21.10;;
21546;SDS011;41275;51.912;4.388;2023-02-15T20:48:13;44.50;;;21.77;;
21546;SDS011;41275;51.912;4.388;2023-02-15T20:53:34;45.53;;;21.83;;
21546;SDS011;41275;51.912;4.388;2023-02-15T20:58:55;41.10;;;22.40;;
21546;SDS011;41275;51.912;4.388;2023-02-15T21:04:21;41.65;;;22.63;;
21546;SDS011;41275;51.912;4.388;2023-02-15T21:09:45;41.20;;;22.93;;
21546;SDS011;41275;51.912;4.388;2023-02-15T21:15:15;42.63;;;22.40;;
21546;SDS011;41275;51.912;4.388;2023-02-15T21:20:46;42.25;;;22.15;;
21546;SDS011;41275;51.912;4.388;2023-02-15T21:26:12;46.38;;;23.33;;
21546;SDS011;41275;51.912;4.388;2023-02-15T21:31:36;44.90;;;22.75;;
21546;SDS011;41275;51.912;4.388;2023-02-15T21:36:57;45.58;;;24.17;;
21546;SDS011;41275;51.912;4.388;2023-02-15T21:42:19;46.58;;;23.90;;
21546;SDS011;41275;51.912;4.388;2023-02-15T21:47:58;44.40;;;24.67;;
21546;SDS011;41275;51.912;4.388;2023-02-15T21:53:26;47.57;;;24.90;;
21546;SDS011;41275;51.912;4.388;2023-02-15T21:58:52;45.47;;;24.57;;
21546;SDS011;41275;51.912;4.388;2023-02-15T22:04:26;47.53;;;24.63;;
21546;SDS011;41275;51.912;4.388;2023-02-15T22:09:50;44.88;;;25.38;;
21546;SDS011;41275;51.912;4.388;2023-02-15T22:15:18;44.92;;;25.27;;
21546;SDS011;41275;51.912;4.388;2023-02-15T22:20:40;47.20;;;25.40;;
21546;SDS011;41275;51.912;4.388;2023-02-15T22:26:02;50.10;;;26.08;;
21546;SDS011;41275;51.912;4.388;2023-02-15T22:31:31;53.95;;;27.20;;
21546;SDS011;41275;51.912;4.388;2023-02-15T22:36:53;52.80;;;26.92;;
21546;SDS011;41275;51.912;4.388;2023-02-15T22:42:21;54.10;;;27.42;;
21546;SDS011;41275;51.912;4.388;2023-02-15T22:47:48;49.13;;;26.80;;
21546;SDS011;41275;51.912;4.388;2023-02-15T22:53:11;49.92;;;26.98;;
21546;SDS011;41275;51.912;4.388;2023-02-15T22:58:32;53.58;;;27.83;;
21546;SDS011;41275;51.912;4.388;2023-02-15T23:03:54;57.72;;;28.10;;
21546;SDS011;41275;51.912;4.388;2023-02-15T23:09:15;56.17;;;28.23;;
21546;SDS011;41275;51.912;4.388;2023-02-15T23:14:36;56.83;;;29.67;;
21546;SDS011;41275;51.912;4.388;2023-02-15T23:19:58;57.60;;;29.73;;
21546;SDS011;41275;51.912;4.388;2023-02-15T23:25:19;53.85;;;28.90;;
21546;SDS011;41275;51.912;4.388;2023-02-15T23:30:44;51.35;;;29.45;;
21546;SDS011;41275;51.912;4.388;2023-02-15T23:36:11;55.58;;;29.48;;
21546;SDS011;41275;51.912;4.388;2023-02-15T23:41:44;57.45;;;29.27;;
21546;SDS011;41275;51.912;4.388;2023-02-15T23:47:06;54.58;;;29.20;;
21546;SDS011;41275;51.912;4.388;2023-02-15T23:53:08;54.00;;;29.15;;
21546;SDS011;41275;51.912;4.388;2023-02-15T23:58:36;52.88;;;28.15;;
